Diekirch, Luxembourg
Current Conditions -  °F | °C
As of 5:20 AM on Thursday 29 Jan 2015 (Local Time) from ELLX Reporting Station
Clear Clear  
Wind Chill: 22°   Ceiling: Unl
Heat Index: 30°   Visibility: 6mi
Dew Point: 30°   Wind: 9mph
Humidity: 100%   Direction: 220°SW
Pressure: 29.47"   Gusts: NA
Location:  49.87°N, 6.16°E
Report Text: ELLX 290420Z 22008KT 180V260 CAVOK M01/M01 Q0998 NOSIG
Loading
Personal Weather Stations






























Interactive Weather Map New forecast layout! Learn more

10-Day Weather Forecast

Advertisements
Track Severe Weather on mobile